createdAt,value
2022-08-10T00:02:17.982Z,98342.28
2022-08-10T00:04:44.853Z,98342.22
2022-08-10T00:07:11.940Z,98361.59
2022-08-10T00:09:50.956Z,98344.72
2022-08-10T00:12:19.693Z,98361.75
2022-08-10T00:14:46.479Z,98359.91
2022-08-10T00:17:13.148Z,98351.00
2022-08-10T00:20:02.525Z,98341.09
2022-08-10T00:22:26.462Z,98352.63
2022-08-10T05:48:59.668Z,98365.28
2022-08-10T05:51:28.758Z,98362.50
2022-08-10T05:54:02.531Z,98383.41
2022-08-10T05:56:55.979Z,98382.50
2022-08-10T06:00:35.616Z,98386.97
2022-08-10T06:02:31.588Z,98385.16
2022-08-10T06:05:05.380Z,98362.81
2022-08-10T06:07:33.205Z,98366.56
2022-08-10T06:10:01.212Z,98377.84
2022-08-10T06:12:30.508Z,98385.22
2022-08-10T06:15:10.168Z,98365.59
2022-08-10T06:17:37.399Z,98378.53
2022-08-10T06:20:04.677Z,98366.06
2022-08-10T06:22:35.484Z,98361.88
2022-08-10T06:27:50.945Z,98367.41
2022-08-10T06:30:20.028Z,98379.31
2022-08-10T06:32:53.506Z,98369.63
2022-08-10T06:35:20.811Z,98369.84
2022-08-10T06:37:51.412Z,98354.75
2022-08-10T06:40:19.871Z,98363.00
2022-08-10T06:42:51.217Z,98371.22
2022-08-10T06:45:31.238Z,98382.16
2022-08-10T06:48:06.381Z,98381.44
2022-08-10T06:50:56.426Z,98375.34
2022-08-10T06:53:25.748Z,98362.22
2022-08-10T06:56:16.070Z,98374.06
2022-08-10T06:59:02.967Z,98386.66
2022-08-10T07:01:34.470Z,98358.16
2022-08-10T07:04:32.902Z,98377.97
2022-08-10T07:07:04.171Z,98363.63
2022-08-10T07:09:34.979Z,98360.28
2022-08-10T07:12:08.417Z,98368.41
2022-08-10T07:14:44.904Z,98371.16
2022-08-10T07:17:18.237Z,98363.25
2022-08-10T07:19:49.805Z,98363.25
2022-08-10T07:23:27.060Z,98370.53
2022-08-10T07:25:09.889Z,98346.47
2022-08-10T07:28:00.060Z,98348.25
2022-08-10T07:30:31.048Z,98351.84
2022-08-10T07:33:00.339Z,98360.69
2022-08-10T07:35:33.222Z,98367.84
2022-08-10T07:38:06.351Z,98361.59
2022-08-10T07:40:34.039Z,98351.75
2022-08-10T07:43:02.157Z,98367.75
2022-08-10T07:45:33.368Z,98350.75
2022-08-10T07:48:07.515Z,98338.22
2022-08-10T07:50:38.068Z,98354.31
2022-08-10T07:53:08.589Z,98368.53
2022-08-10T07:56:01.632Z,98354.19
2022-08-10T07:58:30.126Z,98348.84
2022-08-10T08:00:58.372Z,98356.00
2022-08-10T08:03:28.698Z,98338.06
2022-08-10T08:06:02.512Z,98362.94
2022-08-10T08:08:33.563Z,98350.50
2022-08-10T08:11:01.362Z,98337.81
2022-08-10T08:13:29.503Z,98352.97
2022-08-10T08:16:18.641Z,98355.59
2022-08-10T08:19:03.697Z,98351.91
2022-08-10T08:24:09.793Z,98357.28
2022-08-10T08:24:32.374Z,98335.03
2022-08-10T08:27:03.014Z,98341.09
2022-08-10T08:29:33.167Z,98339.28
2022-08-10T08:32:03.392Z,98346.16
2022-08-10T08:34:36.562Z,98344.50
2022-08-10T08:37:04.987Z,98352.44
2022-08-10T08:39:33.124Z,98342.59
2022-08-10T08:42:27.639Z,98338.19
2022-08-10T08:45:06.690Z,98343.19
2022-08-10T08:48:03.986Z,98343.25
2022-08-10T08:50:56.704Z,98337.81
2022-08-10T08:54:02.071Z,98344.19
2022-08-10T08:56:39.852Z,98342.28
2022-08-10T08:59:31.382Z,98336.00
2022-08-10T09:02:07.843Z,98327.59
2022-08-10T09:04:44.956Z,98334.09
2022-08-10T09:07:59.870Z,98334.22
2022-08-10T09:10:53.996Z,98326.09
2022-08-10T09:13:29.458Z,98320.63
2022-08-10T09:16:02.192Z,98322.13
2022-08-10T09:18:41.983Z,98325.00
2022-08-10T09:21:19.631Z,98306.78
2022-08-10T09:24:01.407Z,98321.84
2022-08-10T09:26:37.917Z,98314.78
2022-08-10T09:29:12.566Z,98322.94
2022-08-10T09:33:05.331Z,98323.16
2022-08-10T09:36:24.600Z,98315.81
2022-08-10T09:38:58.675Z,98314.69
2022-08-10T09:41:37.727Z,98292.59
2022-08-10T09:44:13.537Z,98311.97
2022-08-10T09:46:52.145Z,98297.09
2022-08-10T09:50:04.212Z,98297.16
2022-08-10T09:53:04.098Z,98287.00
2022-08-10T09:56:26.705Z,98306.78
2022-08-10T09:59:47.283Z,98308.13
2022-08-10T10:02:35.731Z,98307.03
2022-08-10T10:05:36.168Z,98296.41
2022-08-10T10:08:02.756Z,98299.34
2022-08-10T10:10:35.966Z,98288.69
2022-08-10T10:13:44.743Z,98272.22
2022-08-10T10:16:20.274Z,98284.00
2022-08-10T10:19:04.419Z,98294.97
2022-08-10T10:21:54.409Z,98281.50
2022-08-10T10:24:41.195Z,98274.47
2022-08-10T10:27:21.285Z,98281.66
2022-08-10T10:30:10.139Z,98277.34
2022-08-10T10:32:55.868Z,98259.91
2022-08-10T10:35:38.520Z,98257.50
2022-08-10T10:38:09.778Z,98258.19
2022-08-10T10:40:54.319Z,98271.00
2022-08-10T10:43:48.681Z,98245.78
2022-08-10T10:46:33.395Z,98263.59
2022-08-10T10:49:22.373Z,98252.19
2022-08-10T10:52:17.416Z,98237.84
2022-08-10T10:54:56.432Z,98238.50
2022-08-10T10:57:59.134Z,98231.59
2022-08-10T11:00:22.134Z,98244.09
2022-08-10T11:03:00.834Z,98244.00
2022-08-10T11:05:42.923Z,98236.06
2022-08-10T11:08:17.373Z,98250.53
2022-08-10T11:10:54.328Z,98222.13
2022-08-10T11:14:27.565Z,98254.31
2022-08-10T11:16:37.235Z,98245.75
2022-08-10T11:20:01.599Z,98250.06
2022-08-10T11:22:46.589Z,98249.75
2022-08-10T11:25:25.173Z,98253.44
2022-08-10T11:28:07.721Z,98247.94
2022-08-10T11:30:49.781Z,98240.97
2022-08-10T11:34:04.046Z,98239.94
2022-08-10T11:36:42.846Z,98247.38
2022-08-10T11:39:30.065Z,98228.88
2022-08-10T11:42:07.739Z,98232.16
2022-08-10T11:45:00.777Z,98235.22
2022-08-10T11:47:34.273Z,98235.38
2022-08-10T11:50:10.143Z,98223.63
2022-08-10T11:52:41.159Z,98241.06
2022-08-10T11:55:15.561Z,98229.03
2022-08-10T11:57:54.859Z,98242.19
2022-08-10T12:00:24.174Z,98236.28
2022-08-10T12:02:56.598Z,98238.47
2022-08-10T12:05:51.760Z,98240.28
2022-08-10T12:10:01.775Z,98230.34
2022-08-10T12:11:08.905Z,98214.16
2022-08-10T12:14:10.671Z,98228.94
2022-08-10T12:16:40.017Z,98206.28
2022-08-10T12:19:18.925Z,98212.22
2022-08-10T12:21:50.518Z,98221.72
2022-08-10T12:24:27.797Z,98223.47
2022-08-10T12:27:02.693Z,98228.47
2022-08-10T12:29:42.054Z,98223.22
2022-08-10T12:32:17.849Z,98209.78
2022-08-10T12:35:04.107Z,98206.22
2022-08-10T12:37:58.115Z,98193.50
2022-08-10T12:40:37.755Z,98203.75
2022-08-10T12:44:03.944Z,98193.84
2022-08-10T12:46:30.874Z,98192.16
2022-08-10T12:49:11.758Z,98189.59
2022-08-10T12:51:49.645Z,98183.13
2022-08-10T12:54:31.839Z,98197.28
2022-08-10T12:57:05.775Z,98198.13
2022-08-10T12:59:33.575Z,98178.84
2022-08-10T13:02:14.817Z,98198.88
2022-08-10T13:04:43.140Z,98152.53
2022-08-10T13:07:10.511Z,98176.38
2022-08-10T13:10:06.846Z,98167.50
2022-08-10T13:12:40.382Z,98163.03
2022-08-10T13:15:45.074Z,98163.38
2022-08-10T13:18:18.919Z,98151.94
2022-08-10T13:20:52.073Z,98153.97
2022-08-10T13:23:24.998Z,98158.28
2022-08-10T13:25:53.760Z,98172.88
2022-08-10T13:28:35.964Z,98159.50
2022-08-10T13:31:16.707Z,98162.25
2022-08-10T13:34:41.246Z,98158.94
2022-08-10T13:36:41.630Z,98159.06
2022-08-10T13:39:11.348Z,98163.19
2022-08-10T13:41:41.043Z,98160.06
2022-08-10T13:44:11.372Z,98153.16
2022-08-10T13:46:42.199Z,98160.94
2022-08-10T13:49:11.223Z,98144.47
2022-08-10T13:51:57.427Z,98148.56
2022-08-10T13:54:29.753Z,98153.06
2022-08-10T13:56:57.857Z,98132.91
2022-08-10T14:00:35.420Z,98136.44
2022-08-10T14:02:22.841Z,98126.06
2022-08-10T14:04:50.790Z,98127.97
2022-08-10T14:07:18.275Z,98133.03
2022-08-10T14:09:47.628Z,98124.38
2022-08-10T14:12:15.273Z,98120.13
2022-08-10T14:14:42.802Z,98126.91
2022-08-10T14:17:12.433Z,98123.56
2022-08-10T14:19:43.466Z,98111.50
2022-08-10T14:22:17.062Z,98113.94
2022-08-10T14:24:47.053Z,98128.22
2022-08-10T14:27:17.913Z,98104.13
2022-08-10T14:29:54.908Z,98115.81
2022-08-10T14:32:28.455Z,98107.41
2022-08-10T14:36:15.491Z,98105.06
2022-08-10T14:37:55.647Z,98097.69
2022-08-10T14:40:25.983Z,98109.00
2022-08-10T14:42:53.916Z,98100.66
2022-08-10T14:45:26.656Z,98101.28
2022-08-10T14:48:00.959Z,98104.81
2022-08-10T14:50:32.463Z,98109.94
2022-08-10T14:53:17.335Z,98098.94
2022-08-10T14:55:57.719Z,98098.44
2022-08-10T14:58:45.725Z,98098.16
2022-08-10T15:01:26.977Z,98107.69
2022-08-10T15:04:17.458Z,98099.13
2022-08-10T15:06:55.184Z,98086.16
2022-08-10T15:09:25.207Z,98075.78
2022-08-10T15:12:13.534Z,98065.63
2022-08-10T15:14:46.219Z,98079.25
2022-08-10T15:17:23.449Z,98095.28
2022-08-10T15:20:04.577Z,98078.50
2022-08-10T15:22:49.962Z,98073.69
2022-08-10T15:25:24.180Z,98062.41
2022-08-10T15:28:05.218Z,98078.16
2022-08-10T15:30:43.865Z,98069.41
2022-08-10T15:34:02.307Z,98064.50
2022-08-10T15:36:47.139Z,98077.28
2022-08-10T15:40:21.395Z,98060.72
2022-08-10T15:42:24.469Z,98052.31
2022-08-10T15:44:55.834Z,98059.38
2022-08-10T15:47:45.797Z,98064.56
2022-08-10T15:50:27.690Z,98071.06
2022-08-10T15:53:01.810Z,98074.66
2022-08-10T15:55:41.862Z,98044.19
2022-08-10T15:58:30.303Z,98033.63
2022-08-10T16:02:12.981Z,98054.22
2022-08-10T16:04:15.611Z,98044.16
2022-08-10T16:06:49.137Z,98051.56
2022-08-10T16:10:24.790Z,98039.59
2022-08-10T16:12:18.546Z,98035.56
2022-08-10T16:14:59.922Z,98047.25
2022-08-10T16:17:28.221Z,98057.25
2022-08-10T16:19:57.880Z,98043.00
2022-08-10T16:22:35.345Z,98036.72
2022-08-10T16:25:12.268Z,98022.41
2022-08-10T16:27:41.012Z,98029.22
2022-08-10T16:30:08.022Z,98031.22
2022-08-10T16:32:36.370Z,98018.56
2022-08-10T16:35:09.015Z,98039.38
2022-08-10T16:37:58.795Z,98037.19
2022-08-10T16:40:29.291Z,98042.22
2022-08-10T16:42:57.446Z,98035.63
2022-08-10T16:45:33.039Z,98045.59
2022-08-10T16:48:01.411Z,98046.16
2022-08-10T16:50:37.589Z,98043.94
2022-08-10T16:53:06.982Z,98030.88
2022-08-10T16:55:48.440Z,98027.19
2022-08-10T16:58:21.860Z,98026.13
2022-08-10T17:00:50.041Z,98022.44
2022-08-10T17:04:04.396Z,98018.63
2022-08-10T17:06:11.606Z,98016.75
2022-08-10T17:08:48.723Z,98036.81
2022-08-10T17:11:18.370Z,98017.72
2022-08-10T17:13:45.402Z,98032.50
2022-08-10T17:16:14.362Z,98037.75
2022-08-10T17:18:46.771Z,98037.06
2022-08-10T17:21:22.188Z,98029.78
2022-08-10T17:23:54.862Z,98029.94
2022-08-10T17:26:36.078Z,98033.16
2022-08-10T17:29:53.467Z,98029.53
2022-08-10T17:32:17.381Z,98030.06
2022-08-10T17:34:52.367Z,98030.25
2022-08-10T17:37:22.001Z,98035.25
2022-08-10T17:40:01.997Z,98027.97
2022-08-10T17:42:29.688Z,98052.13
2022-08-10T17:44:56.946Z,98033.31
2022-08-10T17:47:27.295Z,98048.03
2022-08-10T17:49:58.661Z,98028.72
2022-08-10T17:52:29.411Z,98050.16
2022-08-10T17:55:07.363Z,98028.13
2022-08-10T17:57:38.735Z,98046.69
2022-08-10T18:00:12.827Z,98035.22
2022-08-10T18:02:42.670Z,98054.94
2022-08-10T18:05:11.488Z,98054.16
2022-08-10T18:07:43.521Z,98032.06
2022-08-10T18:10:14.366Z,98040.34
2022-08-10T18:12:47.429Z,98055.31
2022-08-10T18:15:19.117Z,98045.84
2022-08-10T18:17:58.379Z,98052.94
2022-08-10T18:20:33.410Z,98052.22
2022-08-10T18:23:01.671Z,98058.47
2022-08-10T18:25:32.834Z,98046.94
2022-08-10T18:28:04.951Z,98050.72
2022-08-10T18:30:46.044Z,98057.84
2022-08-10T18:33:14.104Z,98068.56
2022-08-10T18:35:41.662Z,98074.03
2022-08-10T18:38:10.830Z,98058.25
2022-08-10T18:40:43.374Z,98069.00
2022-08-10T18:44:07.002Z,98080.66
2022-08-10T18:46:01.055Z,98060.28
2022-08-10T18:48:38.667Z,98065.75
2022-08-10T18:51:07.896Z,98084.59
2022-08-10T18:53:36.136Z,98059.75
2022-08-10T18:56:25.827Z,98087.34
2022-08-10T18:59:19.495Z,98091.97
2022-08-10T19:02:01.520Z,98085.13
2022-08-10T19:05:00.458Z,98086.16
2022-08-10T19:07:44.242Z,98069.50
2022-08-10T19:10:27.672Z,98097.22
2022-08-10T19:13:03.106Z,98107.03
2022-08-10T19:15:32.965Z,98110.78
2022-08-10T19:18:16.738Z,98099.16
2022-08-10T19:21:17.192Z,98105.63
2022-08-10T19:23:52.820Z,98087.94
2022-08-10T19:26:41.747Z,98112.97
2022-08-10T19:30:08.639Z,98088.25
2022-08-10T19:32:41.586Z,98102.38
2022-08-10T19:35:33.799Z,98087.41
2022-08-10T19:38:33.041Z,98110.47
2022-08-10T19:41:15.284Z,98110.44
2022-08-10T19:44:03.271Z,98108.00
2022-08-10T19:46:42.604Z,98097.56
2022-08-10T19:49:39.546Z,98103.75
2022-08-10T19:52:20.354Z,98088.78
2022-08-10T19:55:06.758Z,98106.59
2022-08-10T19:57:59.143Z,98101.34
2022-08-10T20:00:48.520Z,98089.75
2022-08-10T20:03:42.774Z,98107.63
2022-08-10T20:06:35.701Z,98106.78
2022-08-10T20:09:50.545Z,98095.31
2022-08-10T20:12:36.016Z,98111.38
2022-08-10T20:15:21.294Z,98087.34
2022-08-10T20:18:01.910Z,98109.66
2022-08-10T20:20:37.341Z,98115.97
2022-08-10T20:23:19.221Z,98086.59
2022-08-10T20:26:00.839Z,98100.84
2022-08-10T20:28:38.087Z,98091.13
2022-08-10T20:31:33.921Z,98104.50
2022-08-10T20:34:05.437Z,98104.50
2022-08-10T20:36:38.096Z,98095.63
2022-08-10T20:39:19.190Z,98107.22
2022-08-10T20:42:14.884Z,98110.84
2022-08-10T20:44:59.537Z,98107.31
2022-08-10T20:47:42.573Z,98118.03
2022-08-10T20:50:52.404Z,98118.06
2022-08-10T20:53:24.435Z,98098.47
2022-08-10T20:55:54.500Z,98120.75
2022-08-10T20:58:42.767Z,98122.56
2022-08-10T21:01:17.295Z,98101.22
2022-08-10T21:04:02.166Z,98115.47
2022-08-10T21:07:05.561Z,98110.16
2022-08-10T21:09:50.773Z,98120.88
2022-08-10T21:12:23.945Z,98095.94
2022-08-10T21:15:06.238Z,98098.59
2022-08-10T21:17:59.559Z,98105.75
2022-08-10T21:20:32.185Z,98102.19
2022-08-10T21:23:05.104Z,98107.53
